sensor_id;sensor_type;location;lat;lon;timestamp;pressure;altitude;pressure_sealevel;temperature;humidity
60015;BME280;45867;52.480;6.056;2023-04-02T00:00:31;101270.53;;;4.78;100.00
60015;BME280;45867;52.480;6.056;2023-04-02T00:03:02;101291.25;;;4.86;100.00
60015;BME280;45867;52.480;6.056;2023-04-02T00:08:03;101285.72;;;4.69;100.00
60015;BME280;45867;52.480;6.056;2023-04-02T00:13:02;101306.69;;;4.76;100.00
60015;BME280;45867;52.480;6.056;2023-04-02T00:15:29;101309.16;;;4.71;100.00
60015;BME280;45867;52.480;6.056;2023-04-02T00:17:56;101303.31;;;4.68;100.00
60015;BME280;45867;52.480;6.056;2023-04-02T00:20:22;101309.22;;;4.64;100.00
60015;BME280;45867;52.480;6.056;2023-04-02T00:22:48;101330.75;;;4.73;100.00
60015;BME280;45867;52.480;6.056;2023-04-02T00:25:14;101320.56;;;4.58;100.00
60015;BME280;45867;52.480;6.056;2023-04-02T00:27:40;101334.88;;;4.62;100.00
60015;BME280;45867;52.480;6.056;2023-04-02T00:30:06;101321.41;;;4.52;100.00
60015;BME280;45867;52.480;6.056;2023-04-02T00:32:34;101321.50;;;4.38;100.00
60015;BME280;45867;52.480;6.056;2023-04-02T00:35:01;101347.63;;;4.58;100.00
60015;BME280;45867;52.480;6.056;2023-04-02T00:37:30;101346.06;;;4.51;100.00
60015;BME280;45867;52.480;6.056;2023-04-02T00:40:24;101348.28;;;4.47;100.00
60015;BME280;45867;52.480;6.056;2023-04-02T00:42:52;101353.75;;;4.45;100.00
60015;BME280;45867;52.480;6.056;2023-04-02T00:45:23;101366.09;;;4.45;100.00
60015;BME280;45867;52.480;6.056;2023-04-02T00:47:51;101362.69;;;4.38;100.00
60015;BME280;45867;52.480;6.056;2023-04-02T00:52:50;101375.81;;;4.38;100.00
60015;BME280;45867;52.480;6.056;2023-04-02T00:55:33;101371.06;;;4.21;100.00
60015;BME280;45867;52.480;6.056;2023-04-02T00:58:00;101372.69;;;4.16;100.00
60015;BME280;45867;52.480;6.056;2023-04-02T01:00:35;101388.44;;;4.16;100.00
60015;BME280;45867;52.480;6.056;2023-04-02T01:05:46;101397.94;;;4.10;100.00
60015;BME280;45867;52.480;6.056;2023-04-02T01:08:20;101419.13;;;4.09;100.00
60015;BME280;45867;52.480;6.056;2023-04-02T01:22:04;101429.91;;;3.81;100.00
60015;BME280;45867;52.480;6.056;2023-04-02T01:24:33;101414.22;;;3.67;100.00
60015;BME280;45867;52.480;6.056;2023-04-02T01:27:04;101443.84;;;3.74;100.00
60015;BME280;45867;52.480;6.056;2023-04-02T01:29:47;101439.22;;;3.70;100.00
60015;BME280;45867;52.480;6.056;2023-04-02T01:32:16;101446.88;;;3.78;100.00
60015;BME280;45867;52.480;6.056;2023-04-02T01:34:49;101461.41;;;3.74;100.00
60015;BME280;45867;52.480;6.056;2023-04-02T01:45:25;101476.31;;;3.73;100.00
60015;BME280;45867;52.480;6.056;2023-04-02T01:47:51;101473.50;;;3.62;100.00
60015;BME280;45867;52.480;6.056;2023-04-02T01:50:26;101484.81;;;3.69;100.00
60015;BME280;45867;52.480;6.056;2023-04-02T01:52:58;101493.47;;;3.69;100.00
60015;BME280;45867;52.480;6.056;2023-04-02T01:58:09;101484.41;;;3.59;100.00
60015;BME280;45867;52.480;6.056;2023-04-02T02:00:43;101502.56;;;3.60;100.00
60015;BME280;45867;52.480;6.056;2023-04-02T02:03:11;101496.91;;;3.56;100.00
60015;BME280;45867;52.480;6.056;2023-04-02T02:05:37;101487.63;;;3.54;100.00
60015;BME280;45867;52.480;6.056;2023-04-02T02:08:03;101498.13;;;3.47;100.00
60015;BME280;45867;52.480;6.056;2023-04-02T02:10:35;101508.41;;;3.55;100.00
60015;BME280;45867;52.480;6.056;2023-04-02T02:13:01;101508.38;;;3.49;100.00
60015;BME280;45867;52.480;6.056;2023-04-02T02:15:27;101519.88;;;3.54;100.00
60015;BME280;45867;52.480;6.056;2023-04-02T02:17:57;101523.91;;;3.50;100.00
60015;BME280;45867;52.480;6.056;2023-04-02T02:20:26;101528.75;;;3.53;100.00
60015;BME280;45867;52.480;6.056;2023-04-02T02:22:52;101545.09;;;3.55;100.00
60015;BME280;45867;52.480;6.056;2023-04-02T02:25:21;101543.06;;;3.58;100.00
60015;BME280;45867;52.480;6.056;2023-04-02T02:30:26;101538.00;;;3.43;100.00
60015;BME280;45867;52.480;6.056;2023-04-02T02:32:59;101553.53;;;3.51;100.00
60015;BME280;45867;52.480;6.056;2023-04-02T02:35:35;101541.63;;;3.28;100.00
60015;BME280;45867;52.480;6.056;2023-04-02T02:40:59;101565.63;;;3.25;100.00
60015;BME280;45867;52.480;6.056;2023-04-02T02:43:27;101564.19;;;3.23;100.00
60015;BME280;45867;52.480;6.056;2023-04-02T02:45:54;101571.84;;;3.18;100.00
60015;BME280;45867;52.480;6.056;2023-04-02T02:48:22;101567.16;;;3.00;100.00
60015;BME280;45867;52.480;6.056;2023-04-02T02:50:50;101576.84;;;3.06;100.00
60015;BME280;45867;52.480;6.056;2023-04-02T02:53:26;101592.34;;;3.01;100.00
60015;BME280;45867;52.480;6.056;2023-04-02T02:55:57;101583.03;;;2.85;100.00
60015;BME280;45867;52.480;6.056;2023-04-02T02:58:27;101597.75;;;2.93;100.00
60015;BME280;45867;52.480;6.056;2023-04-02T03:00:55;101595.47;;;2.76;100.00
60015;BME280;45867;52.480;6.056;2023-04-02T03:03:23;101616.31;;;2.98;100.00
60015;BME280;45867;52.480;6.056;2023-04-02T03:05:56;101623.50;;;2.89;100.00
60015;BME280;45867;52.480;6.056;2023-04-02T03:08:32;101617.06;;;2.85;100.00
60015;BME280;45867;52.480;6.056;2023-04-02T03:11:00;101636.97;;;2.79;100.00
60015;BME280;45867;52.480;6.056;2023-04-02T03:13:33;101613.69;;;2.56;100.00
60015;BME280;45867;52.480;6.056;2023-04-02T03:23:52;101655.53;;;2.50;100.00
60015;BME280;45867;52.480;6.056;2023-04-02T03:26:30;101658.28;;;2.41;100.00
60015;BME280;45867;52.480;6.056;2023-04-02T03:31:43;101682.59;;;2.35;100.00
60015;BME280;45867;52.480;6.056;2023-04-02T03:34:37;101680.06;;;2.20;100.00
60015;BME280;45867;52.480;6.056;2023-04-02T03:39:51;101702.88;;;2.05;100.00
60015;BME280;45867;52.480;6.056;2023-04-02T03:42:24;101703.56;;;1.92;100.00
60015;BME280;45867;52.480;6.056;2023-04-02T03:44:57;101700.94;;;1.71;100.00
60015;BME280;45867;52.480;6.056;2023-04-02T03:47:36;101707.00;;;1.57;100.00
60015;BME280;45867;52.480;6.056;2023-04-02T03:50:07;101702.06;;;1.47;100.00
60015;BME280;45867;52.480;6.056;2023-04-02T03:52:36;101722.97;;;1.47;100.00
60015;BME280;45867;52.480;6.056;2023-04-02T03:55:13;101726.16;;;1.27;100.00
60015;BME280;45867;52.480;6.056;2023-04-02T03:57:54;101739.94;;;1.21;100.00
60015;BME280;45867;52.480;6.056;2023-04-02T04:00:33;101735.34;;;1.08;100.00
60015;BME280;45867;52.480;6.056;2023-04-02T04:03:14;101751.72;;;1.17;100.00
60015;BME280;45867;52.480;6.056;2023-04-02T04:05:50;101760.75;;;1.15;100.00
60015;BME280;45867;52.480;6.056;2023-04-02T04:08:21;101763.44;;;1.06;100.00
60015;BME280;45867;52.480;6.056;2023-04-02T04:11:01;101762.09;;;0.96;100.00
60015;BME280;45867;52.480;6.056;2023-04-02T04:13:39;101778.72;;;0.95;100.00
60015;BME280;45867;52.480;6.056;2023-04-02T04:16:12;101756.91;;;0.73;100.00
60015;BME280;45867;52.480;6.056;2023-04-02T04:18:48;101787.00;;;0.83;100.00
60015;BME280;45867;52.480;6.056;2023-04-02T04:21:21;101783.81;;;0.73;100.00
60015;BME280;45867;52.480;6.056;2023-04-02T04:23:55;101785.81;;;0.71;100.00
60015;BME280;45867;52.480;6.056;2023-04-02T04:32:23;101812.13;;;0.61;100.00
60015;BME280;45867;52.480;6.056;2023-04-02T04:34:54;101826.16;;;0.60;100.00
60015;BME280;45867;52.480;6.056;2023-04-02T04:37:30;101811.38;;;0.53;100.00
60015;BME280;45867;52.480;6.056;2023-04-02T04:40:19;101827.19;;;0.51;100.00
60015;BME280;45867;52.480;6.056;2023-04-02T04:42:49;101841.41;;;0.49;100.00
60015;BME280;45867;52.480;6.056;2023-04-02T04:48:01;101834.78;;;0.38;100.00
60015;BME280;45867;52.480;6.056;2023-04-02T04:50:49;101859.53;;;0.42;100.00
60015;BME280;45867;52.480;6.056;2023-04-02T04:53:23;101860.69;;;0.39;100.00
60015;BME280;45867;52.480;6.056;2023-04-02T04:55:52;101864.13;;;0.40;100.00
60015;BME280;45867;52.480;6.056;2023-04-02T04:58:23;101860.88;;;0.38;100.00
60015;BME280;45867;52.480;6.056;2023-04-02T05:06:42;101893.28;;;0.66;100.00
60015;BME280;45867;52.480;6.056;2023-04-02T05:11:44;101877.69;;;0.58;100.00
60015;BME280;45867;52.480;6.056;2023-04-02T05:14:32;101908.88;;;0.75;100.00
60015;BME280;45867;52.480;6.056;2023-04-02T05:19:46;101929.75;;;0.75;100.00
60015;BME280;45867;52.480;6.056;2023-04-02T05:22:41;101928.59;;;0.77;100.00
60015;BME280;45867;52.480;6.056;2023-04-02T05:25:17;101940.00;;;0.76;100.00
60015;BME280;45867;52.480;6.056;2023-04-02T05:28:02;101950.91;;;0.80;100.00
60015;BME280;45867;52.480;6.056;2023-04-02T05:30:51;101958.41;;;0.83;100.00
60015;BME280;45867;52.480;6.056;2023-04-02T05:33:32;101950.72;;;0.81;100.00
60015;BME280;45867;52.480;6.056;2023-04-02T05:36:09;101946.91;;;0.69;100.00
60015;BME280;45867;52.480;6.056;2023-04-02T05:38:38;101972.59;;;0.80;100.00
60015;BME280;45867;52.480;6.056;2023-04-02T05:44:25;101988.31;;;0.95;100.00
60015;BME280;45867;52.480;6.056;2023-04-02T05:47:11;101977.94;;;0.87;100.00
60015;BME280;45867;52.480;6.056;2023-04-02T05:52:05;102009.19;;;0.95;100.00
60015;BME280;45867;52.480;6.056;2023-04-02T05:54:54;102010.84;;;0.96;100.00
60015;BME280;45867;52.480;6.056;2023-04-02T05:57:25;102007.28;;;0.89;100.00
60015;BME280;45867;52.480;6.056;2023-04-02T05:59:57;102008.75;;;0.92;100.00
60015;BME280;45867;52.480;6.056;2023-04-02T06:02:44;102027.72;;;1.08;100.00
60015;BME280;45867;52.480;6.056;2023-04-02T06:05:23;102006.31;;;0.90;100.00
60015;BME280;45867;52.480;6.056;2023-04-02T06:07:55;102024.19;;;1.01;100.00
60015;BME280;45867;52.480;6.056;2023-04-02T06:10:34;102027.69;;;0.85;100.00
60015;BME280;45867;52.480;6.056;2023-04-02T06:13:05;102041.06;;;0.91;100.00
60015;BME280;45867;52.480;6.056;2023-04-02T06:15:33;102037.75;;;0.97;100.00
60015;BME280;45867;52.480;6.056;2023-04-02T06:18:05;102051.69;;;1.12;100.00
60015;BME280;45867;52.480;6.056;2023-04-02T06:20:31;102060.72;;;1.01;100.00
60015;BME280;45867;52.480;6.056;2023-04-02T06:23:05;102074.50;;;1.18;100.00
60015;BME280;45867;52.480;6.056;2023-04-02T06:25:36;102057.22;;;1.09;100.00
60015;BME280;45867;52.480;6.056;2023-04-02T06:28:05;102061.13;;;1.13;100.00
60015;BME280;45867;52.480;6.056;2023-04-02T06:30:37;102064.03;;;1.18;100.00
60015;BME280;45867;52.480;6.056;2023-04-02T06:33:05;102066.19;;;1.15;100.00
60015;BME280;45867;52.480;6.056;2023-04-02T06:35:37;102096.03;;;1.20;100.00
60015;BME280;45867;52.480;6.056;2023-04-02T06:38:05;102106.47;;;1.43;100.00
60015;BME280;45867;52.480;6.056;2023-04-02T06:40:47;102108.97;;;1.37;100.00
60015;BME280;45867;52.480;6.056;2023-04-02T06:43:26;102108.56;;;1.48;100.00
60015;BME280;45867;52.480;6.056;2023-04-02T06:45:58;102108.97;;;1.37;100.00
60015;BME280;45867;52.480;6.056;2023-04-02T06:48:27;102103.03;;;1.20;100.00
60015;BME280;45867;52.480;6.056;2023-04-02T06:50:58;102099.44;;;1.21;100.00
60015;BME280;45867;52.480;6.056;2023-04-02T06:53:45;102113.41;;;1.28;100.00
60015;BME280;45867;52.480;6.056;2023-04-02T06:56:40;102125.63;;;1.36;100.00
60015;BME280;45867;52.480;6.056;2023-04-02T06:59:08;102138.69;;;1.36;100.00
60015;BME280;45867;52.480;6.056;2023-04-02T07:01:58;102147.75;;;1.48;100.00
60015;BME280;45867;52.480;6.056;2023-04-02T07:04:25;102128.94;;;1.29;100.00
60015;BME280;45867;52.480;6.056;2023-04-02T07:06:51;102147.66;;;1.64;100.00
60015;BME280;45867;52.480;6.056;2023-04-02T07:09:17;102141.19;;;1.52;100.00
60015;BME280;45867;52.480;6.056;2023-04-02T07:11:57;102165.25;;;1.70;100.00
60015;BME280;45867;52.480;6.056;2023-04-02T07:14:25;102157.28;;;1.64;100.00
60015;BME280;45867;52.480;6.056;2023-04-02T07:16:51;102162.78;;;1.69;100.00
60015;BME280;45867;52.480;6.056;2023-04-02T07:19:19;102162.16;;;1.67;100.00
60015;BME280;45867;52.480;6.056;2023-04-02T07:21:48;102181.03;;;2.00;100.00
60015;BME280;45867;52.480;6.056;2023-04-02T07:24:16;102189.91;;;2.14;100.00
60015;BME280;45867;52.480;6.056;2023-04-02T07:26:41;102180.63;;;2.26;100.00
60015;BME280;45867;52.480;6.056;2023-04-02T07:29:10;102187.81;;;2.32;100.00
60015;BME280;45867;52.480;6.056;2023-04-02T07:31:37;102190.56;;;2.31;100.00
60015;BME280;45867;52.480;6.056;2023-04-02T07:34:05;102188.44;;;2.49;100.00
60015;BME280;45867;52.480;6.056;2023-04-02T07:36:31;102188.19;;;2.74;100.00
60015;BME280;45867;52.480;6.056;2023-04-02T07:38:56;102194.50;;;3.09;100.00
60015;BME280;45867;52.480;6.056;2023-04-02T07:41:22;102189.47;;;3.44;100.00
60015;BME280;45867;52.480;6.056;2023-04-02T07:43:47;102208.88;;;3.86;100.00
60015;BME280;45867;52.480;6.056;2023-04-02T07:46:15;102211.88;;;3.83;100.00
60015;BME280;45867;52.480;6.056;2023-04-02T07:48:43;102213.78;;;3.74;100.00
60015;BME280;45867;52.480;6.056;2023-04-02T07:51:19;102217.34;;;3.66;100.00
60015;BME280;45867;52.480;6.056;2023-04-02T07:53:45;102222.28;;;3.40;100.00
60015;BME280;45867;52.480;6.056;2023-04-02T07:56:18;102225.59;;;3.63;100.00
60015;BME280;45867;52.480;6.056;2023-04-02T07:58:44;102212.50;;;3.48;100.00
60015;BME280;45867;52.480;6.056;2023-04-02T08:01:21;102214.69;;;3.45;100.00
60015;BME280;45867;52.480;6.056;2023-04-02T08:03:54;102226.28;;;3.57;100.00
60015;BME280;45867;52.480;6.056;2023-04-02T08:06:20;102210.72;;;3.70;100.00
60015;BME280;45867;52.480;6.056;2023-04-02T08:08:48;102236.81;;;3.78;100.00
60015;BME280;45867;52.480;6.056;2023-04-02T08:11:14;102252.69;;;4.63;100.00
60015;BME280;45867;52.480;6.056;2023-04-02T08:13:39;102243.69;;;5.55;100.00
60015;BME280;45867;52.480;6.056;2023-04-02T08:16:06;102237.09;;;6.79;100.00
60015;BME280;45867;52.480;6.056;2023-04-02T08:18:32;102263.63;;;7.55;100.00
60015;BME280;45867;52.480;6.056;2023-04-02T08:20:58;102249.78;;;8.55;100.00
60015;BME280;45867;52.480;6.056;2023-04-02T08:23:24;102252.69;;;8.47;100.00
60015;BME280;45867;52.480;6.056;2023-04-02T08:25:51;102263.09;;;8.85;100.00
60015;BME280;45867;52.480;6.056;2023-04-02T08:28:18;102279.22;;;9.69;100.00
60015;BME280;45867;52.480;6.056;2023-04-02T08:30:50;102281.63;;;10.31;100.00
60015;BME280;45867;52.480;6.056;2023-04-02T08:33:18;102291.69;;;10.64;100.00
60015;BME280;45867;52.480;6.056;2023-04-02T08:35:49;102296.31;;;10.15;100.00
60015;BME280;45867;52.480;6.056;2023-04-02T08:38:16;102310.34;;;11.05;100.00
60015;BME280;45867;52.480;6.056;2023-04-02T08:40:44;102322.06;;;12.02;100.00
60015;BME280;45867;52.480;6.056;2023-04-02T08:48:16;102315.59;;;11.69;97.46
60015;BME280;45867;52.480;6.056;2023-04-02T08:50:52;102318.13;;;11.35;97.55
60015;BME280;45867;52.480;6.056;2023-04-02T08:53:28;102315.31;;;10.89;100.00
60015;BME280;45867;52.480;6.056;2023-04-02T08:56:17;102323.56;;;11.28;96.49
60015;BME280;45867;52.480;6.056;2023-04-02T08:58:45;102339.34;;;11.47;99.69
60015;BME280;45867;52.480;6.056;2023-04-02T09:03:47;102349.91;;;11.99;88.00
60015;BME280;45867;52.480;6.056;2023-04-02T09:06:18;102346.31;;;11.65;85.85
60015;BME280;45867;52.480;6.056;2023-04-02T09:08:46;102351.59;;;11.76;83.41
60015;BME280;45867;52.480;6.056;2023-04-02T09:13:51;102352.88;;;12.14;91.48
60015;BME280;45867;52.480;6.056;2023-04-02T09:16:33;102375.81;;;13.22;84.57
60015;BME280;45867;52.480;6.056;2023-04-02T09:18:59;102353.06;;;12.75;77.84
60015;BME280;45867;52.480;6.056;2023-04-02T09:23:56;102378.38;;;13.77;72.03
60015;BME280;45867;52.480;6.056;2023-04-02T09:26:28;102383.16;;;13.97;71.58
60015;BME280;45867;52.480;6.056;2023-04-02T09:31:44;102393.69;;;14.69;65.94
60015;BME280;45867;52.480;6.056;2023-04-02T09:34:29;102399.13;;;14.84;71.19
60015;BME280;45867;52.480;6.056;2023-04-02T09:36:56;102396.31;;;16.37;69.47
60015;BME280;45867;52.480;6.056;2023-04-02T09:39:25;102392.81;;;16.67;57.07
60015;BME280;45867;52.480;6.056;2023-04-02T09:41:51;102418.19;;;16.13;59.08
60015;BME280;45867;52.480;6.056;2023-04-02T09:44:20;102416.09;;;16.46;60.45
60015;BME280;45867;52.480;6.056;2023-04-02T09:46:52;102410.22;;;14.65;62.79
60015;BME280;45867;52.480;6.056;2023-04-02T09:49:25;102430.66;;;14.55;60.89
60015;BME280;45867;52.480;6.056;2023-04-02T09:54:38;102422.06;;;14.80;64.73
60015;BME280;45867;52.480;6.056;2023-04-02T09:57:18;102430.19;;;15.43;61.93
60015;BME280;45867;52.480;6.056;2023-04-02T10:00:07;102414.16;;;16.06;59.11
60015;BME280;45867;52.480;6.056;2023-04-02T10:02:34;102434.84;;;16.72;50.41
60015;BME280;45867;52.480;6.056;2023-04-02T10:05:06;102452.47;;;16.42;49.35
60015;BME280;45867;52.480;6.056;2023-04-02T10:07:39;102442.09;;;16.81;53.37
60015;BME280;45867;52.480;6.056;2023-04-02T10:10:25;102446.06;;;17.15;46.48
60015;BME280;45867;52.480;6.056;2023-04-02T10:13:03;102463.41;;;16.25;46.34
60015;BME280;45867;52.480;6.056;2023-04-02T10:15:34;102470.72;;;17.27;48.75
60015;BME280;45867;52.480;6.056;2023-04-02T10:18:15;102466.72;;;16.94;47.30
60015;BME280;45867;52.480;6.056;2023-04-02T10:20:46;102470.56;;;18.33;44.46
60015;BME280;45867;52.480;6.056;2023-04-02T10:23:15;102460.81;;;18.03;43.81
60015;BME280;45867;52.480;6.056;2023-04-02T10:26:30;102463.53;;;19.11;43.15
60015;BME280;45867;52.480;6.056;2023-04-02T10:28:45;102457.69;;;19.03;41.82
60015;BME280;45867;52.480;6.056;2023-04-02T10:31:22;102449.00;;;18.09;39.21
60015;BME280;45867;52.480;6.056;2023-04-02T10:34:04;102467.34;;;18.70;41.92
60015;BME280;45867;52.480;6.056;2023-04-02T10:40:18;102471.19;;;18.59;40.51
60015;BME280;45867;52.480;6.056;2023-04-02T10:45:53;102485.88;;;19.06;41.57
60015;BME280;45867;52.480;6.056;2023-04-02T10:50:59;102483.88;;;18.09;41.03
60015;BME280;45867;52.480;6.056;2023-04-02T10:56:02;102493.34;;;19.67;38.59
60015;BME280;45867;52.480;6.056;2023-04-02T10:58:36;102496.91;;;20.25;39.02
60015;BME280;45867;52.480;6.056;2023-04-02T11:01:07;102476.63;;;18.49;41.18
60015;BME280;45867;52.480;6.056;2023-04-02T11:03:55;102482.78;;;19.71;38.23
60015;BME280;45867;52.480;6.056;2023-04-02T11:06:34;102497.81;;;19.24;38.67
60015;BME280;45867;52.480;6.056;2023-04-02T11:09:04;102486.50;;;19.75;36.30
60015;BME280;45867;52.480;6.056;2023-04-02T11:11:42;102485.03;;;20.64;37.81
60015;BME280;45867;52.480;6.056;2023-04-02T11:14:26;102507.03;;;20.71;37.37
60015;BME280;45867;52.480;6.056;2023-04-02T11:16:53;102500.84;;;20.13;37.66
60015;BME280;45867;52.480;6.056;2023-04-02T11:19:33;102511.81;;;20.17;36.83
60015;BME280;45867;52.480;6.056;2023-04-02T11:24:41;102508.59;;;20.15;36.96
60015;BME280;45867;52.480;6.056;2023-04-02T11:30:23;102519.47;;;18.74;37.00
60015;BME280;45867;52.480;6.056;2023-04-02T11:32:50;102516.28;;;16.81;42.92
60015;BME280;45867;52.480;6.056;2023-04-02T11:38:01;102524.94;;;19.81;38.58
60015;BME280;45867;52.480;6.056;2023-04-02T11:45:56;102516.25;;;20.65;35.47
60015;BME280;45867;52.480;6.056;2023-04-02T11:50:47;102515.25;;;18.03;38.48
60015;BME280;45867;52.480;6.056;2023-04-02T11:56:54;102512.44;;;19.66;37.37
60015;BME280;45867;52.480;6.056;2023-04-02T12:00:18;102518.59;;;19.90;37.04
60015;BME280;45867;52.480;6.056;2023-04-02T12:03:00;102531.38;;;19.80;37.63
60015;BME280;45867;52.480;6.056;2023-04-02T12:05:31;102527.41;;;19.72;36.33
60015;BME280;45867;52.480;6.056;2023-04-02T12:08:27;102525.22;;;19.50;36.74
60015;BME280;45867;52.480;6.056;2023-04-02T12:10:59;102541.97;;;19.71;35.44
60015;BME280;45867;52.480;6.056;2023-04-02T12:16:12;102531.31;;;18.08;37.03
60015;BME280;45867;52.480;6.056;2023-04-02T12:18:47;102535.56;;;18.19;37.64
60015;BME280;45867;52.480;6.056;2023-04-02T12:21:17;102527.75;;;18.78;38.39
60015;BME280;45867;52.480;6.056;2023-04-02T12:23:45;102539.00;;;19.72;35.61
60015;BME280;45867;52.480;6.056;2023-04-02T12:26:33;102541.50;;;18.66;38.09
60015;BME280;45867;52.480;6.056;2023-04-02T12:31:53;102547.00;;;18.40;39.77
60015;BME280;45867;52.480;6.056;2023-04-02T12:34:20;102547.72;;;18.56;38.68
60015;BME280;45867;52.480;6.056;2023-04-02T12:36:57;102554.19;;;19.29;38.49
60015;BME280;45867;52.480;6.056;2023-04-02T12:39:24;102554.31;;;19.96;36.30
60015;BME280;45867;52.480;6.056;2023-04-02T12:41:49;102551.59;;;18.35;37.15
60015;BME280;45867;52.480;6.056;2023-04-02T12:44:18;102562.91;;;18.81;37.58
60015;BME280;45867;52.480;6.056;2023-04-02T12:46:45;102562.28;;;18.45;38.85
60015;BME280;45867;52.480;6.056;2023-04-02T12:49:33;102564.41;;;18.93;38.72
60015;BME280;45867;52.480;6.056;2023-04-02T12:52:26;102566.72;;;18.21;37.77
60015;BME280;45867;52.480;6.056;2023-04-02T12:55:00;102562.84;;;17.21;39.24
60015;BME280;45867;52.480;6.056;2023-04-02T13:02:48;102576.16;;;18.03;39.54
60015;BME280;45867;52.480;6.056;2023-04-02T13:05:32;102574.53;;;18.12;40.31
60015;BME280;45867;52.480;6.056;2023-04-02T13:07:58;102579.94;;;17.91;40.17
60015;BME280;45867;52.480;6.056;2023-04-02T13:10:25;102588.41;;;18.24;40.15
60015;BME280;45867;52.480;6.056;2023-04-02T13:12:56;102573.69;;;18.11;40.87
60015;BME280;45867;52.480;6.056;2023-04-02T13:15:28;102583.53;;;18.36;39.32
60015;BME280;45867;52.480;6.056;2023-04-02T13:18:22;102574.38;;;17.21;40.33
60015;BME280;45867;52.480;6.056;2023-04-02T13:20:57;102586.41;;;17.90;40.70
60015;BME280;45867;52.480;6.056;2023-04-02T13:23:31;102591.81;;;17.49;41.23
60015;BME280;45867;52.480;6.056;2023-04-02T13:26:01;102584.56;;;17.35;40.16
60015;BME280;45867;52.480;6.056;2023-04-02T13:28:27;102593.94;;;17.52;40.85
60015;BME280;45867;52.480;6.056;2023-04-02T13:31:14;102580.25;;;17.59;40.43
60015;BME280;45867;52.480;6.056;2023-04-02T13:33:43;102584.06;;;16.24;42.71
60015;BME280;45867;52.480;6.056;2023-04-02T13:36:13;102583.75;;;16.20;44.03
60015;BME280;45867;52.480;6.056;2023-04-02T13:38:39;102568.88;;;15.44;45.03
60015;BME280;45867;52.480;6.056;2023-04-02T13:41:24;102573.88;;;16.15;45.94
60015;BME280;45867;52.480;6.056;2023-04-02T13:43:52;102566.03;;;16.04;46.30
60015;BME280;45867;52.480;6.056;2023-04-02T13:46:21;102564.13;;;16.67;46.00
60015;BME280;45867;52.480;6.056;2023-04-02T13:48:47;102571.66;;;16.85;43.82
60015;BME280;45867;52.480;6.056;2023-04-02T13:51:16;102583.84;;;15.83;43.03
60015;BME280;45867;52.480;6.056;2023-04-02T13:53:44;102588.56;;;15.38;46.32
60015;BME280;45867;52.480;6.056;2023-04-02T13:56:11;102582.84;;;15.94;47.16
60015;BME280;45867;52.480;6.056;2023-04-02T13:58:36;102585.91;;;15.70;44.94
60015;BME280;45867;52.480;6.056;2023-04-02T14:01:02;102583.44;;;15.64;45.97
60015;BME280;45867;52.480;6.056;2023-04-02T14:03:28;102578.84;;;15.59;46.35
60015;BME280;45867;52.480;6.056;2023-04-02T14:11:29;102590.41;;;15.32;45.79
60015;BME280;45867;52.480;6.056;2023-04-02T14:16:57;102587.91;;;14.44;51.44
60015;BME280;45867;52.480;6.056;2023-04-02T14:30:38;102613.03;;;14.10;60.16
60015;BME280;45867;52.480;6.056;2023-04-02T14:35:53;102608.75;;;13.87;64.70
60015;BME280;45867;52.480;6.056;2023-04-02T14:41:36;102614.72;;;13.77;66.33
60015;BME280;45867;52.480;6.056;2023-04-02T14:44:05;102625.28;;;13.55;65.81
60015;BME280;45867;52.480;6.056;2023-04-02T14:46:35;102614.06;;;13.53;66.28
60015;BME280;45867;52.480;6.056;2023-04-02T14:49:28;102624.97;;;13.85;64.70
60015;BME280;45867;52.480;6.056;2023-04-02T14:52:04;102622.63;;;13.72;63.05
60015;BME280;45867;52.480;6.056;2023-04-02T14:54:36;102623.44;;;13.72;60.54
60015;BME280;45867;52.480;6.056;2023-04-02T14:57:08;102623.19;;;13.40;58.96
60015;BME280;45867;52.480;6.056;2023-04-02T15:02:32;102634.50;;;13.64;66.16
60015;BME280;45867;52.480;6.056;2023-04-02T15:05:17;102628.19;;;13.08;64.92
60015;BME280;45867;52.480;6.056;2023-04-02T15:08:04;102624.72;;;13.53;67.74
60015;BME280;45867;52.480;6.056;2023-04-02T15:10:39;102614.97;;;13.59;68.69
60015;BME280;45867;52.480;6.056;2023-04-02T15:13:15;102639.34;;;13.50;68.86
60015;BME280;45867;52.480;6.056;2023-04-02T15:15:53;102633.28;;;13.09;69.85
60015;BME280;45867;52.480;6.056;2023-04-02T15:18:21;102627.41;;;12.67;71.88
60015;BME280;45867;52.480;6.056;2023-04-02T15:29:39;102644.38;;;11.48;75.88
60015;BME280;45867;52.480;6.056;2023-04-02T15:45:58;102640.44;;;11.93;82.94
60015;BME280;45867;52.480;6.056;2023-04-02T15:48:54;102641.53;;;11.62;80.39
60015;BME280;45867;52.480;6.056;2023-04-02T15:56:35;102652.84;;;11.57;85.32
60015;BME280;45867;52.480;6.056;2023-04-02T15:59:12;102666.69;;;11.59;87.13
60015;BME280;45867;52.480;6.056;2023-04-02T16:01:58;102668.06;;;11.20;88.70
60015;BME280;45867;52.480;6.056;2023-04-02T16:04:41;102665.59;;;11.06;91.95
60015;BME280;45867;52.480;6.056;2023-04-02T16:12:37;102672.81;;;10.44;94.79
60015;BME280;45867;52.480;6.056;2023-04-02T16:15:16;102677.91;;;10.46;94.53
60015;BME280;45867;52.480;6.056;2023-04-02T16:17:45;102677.53;;;10.42;95.74
60015;BME280;45867;52.480;6.056;2023-04-02T16:20:31;102682.13;;;10.53;97.09
60015;BME280;45867;52.480;6.056;2023-04-02T16:23:04;102673.88;;;10.61;97.61
60015;BME280;45867;52.480;6.056;2023-04-02T16:25:40;102664.00;;;10.25;99.33
60015;BME280;45867;52.480;6.056;2023-04-02T16:28:15;102679.81;;;10.38;100.00
60015;BME280;45867;52.480;6.056;2023-04-02T16:30:44;102687.94;;;10.43;100.00
60015;BME280;45867;52.480;6.056;2023-04-02T16:33:25;102691.97;;;10.46;99.33
60015;BME280;45867;52.480;6.056;2023-04-02T16:39:15;102694.25;;;9.92;99.51
60015;BME280;45867;52.480;6.056;2023-04-02T16:47:41;102686.91;;;9.63;100.00